createdAt,value
2023-05-25T00:02:05.251Z,98691.69
2023-05-25T00:06:07.464Z,98693.31
2023-05-25T00:10:09.536Z,98689.03
2023-05-25T00:14:11.606Z,98694.25
2023-05-25T00:18:13.900Z,98678.53
2023-05-25T00:22:16.084Z,98683.78
2023-05-25T00:26:18.145Z,98681.38
2023-05-25T00:30:20.457Z,98677.97
2023-05-25T00:34:22.953Z,98678.81
2023-05-25T00:38:25.019Z,98672.69
2023-05-25T00:42:28.131Z,98670.06
2023-05-25T00:46:31.078Z,98672.69
2023-05-25T00:50:41.862Z,98674.47
2023-05-25T00:54:47.871Z,98676.19
2023-05-25T00:58:53.780Z,98669.28
2023-05-25T01:02:59.356Z,98659.75
2023-05-25T01:07:03.532Z,98669.25
2023-05-25T01:11:07.377Z,98668.38
2023-05-25T01:15:10.172Z,98661.56
2023-05-25T01:19:12.379Z,98663.31
2023-05-25T01:23:17.575Z,98665.09
2023-05-25T01:27:25.035Z,98662.56
2023-05-25T01:31:28.200Z,98666.09
2023-05-25T01:35:31.336Z,98667.81
2023-05-25T01:39:33.396Z,98671.28
2023-05-25T01:43:36.631Z,98670.44
2023-05-25T01:47:44.102Z,98669.56
2023-05-25T01:52:16.105Z,98670.41
2023-05-25T01:56:20.696Z,98663.56
2023-05-25T02:00:23.174Z,98667.03
2023-05-25T02:04:26.317Z,98666.16
2023-05-25T02:08:29.715Z,98672.25
2023-05-25T02:12:35.169Z,98671.44
2023-05-25T02:16:37.267Z,98676.72
2023-05-25T02:20:39.767Z,98667.19
2023-05-25T02:24:41.873Z,98668.94
2023-05-25T02:28:43.932Z,98660.53
2023-05-25T02:32:46.141Z,98661.47
2023-05-25T02:36:48.456Z,98661.50
2023-05-25T02:40:50.602Z,98661.56
2023-05-25T02:44:55.299Z,98659.81
2023-05-25T02:48:58.952Z,98652.00
2023-05-25T02:53:01.470Z,98651.94
2023-05-25T02:57:04.711Z,98652.78
2023-05-25T03:01:10.409Z,98652.84
2023-05-25T03:05:16.256Z,98658.94
2023-05-25T03:09:19.491Z,98655.47
2023-05-25T03:13:24.238Z,98658.94
2023-05-25T03:17:26.600Z,98652.13
2023-05-25T03:21:28.987Z,98654.75
2023-05-25T03:25:31.369Z,98661.69
2023-05-25T03:29:35.246Z,98663.38
2023-05-25T03:33:38.366Z,98664.44
2023-05-25T03:37:40.580Z,98676.66
2023-05-25T03:41:44.353Z,98669.03
2023-05-25T03:45:47.217Z,98672.53
2023-05-25T03:49:49.674Z,98675.09
2023-05-25T03:53:51.816Z,98682.72
2023-05-25T03:57:53.932Z,98688.53
2023-05-25T04:01:56.593Z,98689.25
2023-05-25T04:06:00.452Z,98697.13
2023-05-25T04:10:03.735Z,98690.66
2023-05-25T04:14:05.799Z,98699.94
2023-05-25T04:18:11.380Z,98693.06
2023-05-25T04:22:13.590Z,98701.31
2023-05-25T04:32:14.519Z,98704.00
2023-05-25T04:36:32.611Z,98715.63
2023-05-25T04:40:36.422Z,98715.72
2023-05-25T04:44:39.995Z,98728.66
2023-05-25T04:48:43.708Z,98732.16
2023-05-25T04:52:45.886Z,98733.97
2023-05-25T04:56:48.919Z,98734.31
2023-05-25T05:00:52.577Z,98738.28
2023-05-25T05:04:55.161Z,98739.09
2023-05-25T05:08:58.386Z,98745.50
2023-05-25T05:13:00.527Z,98749.78
2023-05-25T05:17:03.407Z,98740.78
2023-05-25T05:21:05.717Z,98751.00
2023-05-25T05:25:09.637Z,98769.31
2023-05-25T05:29:12.136Z,98775.53
2023-05-25T05:33:14.755Z,98779.91
2023-05-25T05:37:21.828Z,98782.09
2023-05-25T05:41:24.036Z,98778.38
2023-05-25T05:45:26.485Z,98779.38
2023-05-25T05:49:32.241Z,98775.41
2023-05-25T05:53:36.442Z,98776.44
2023-05-25T05:57:38.570Z,98771.97
2023-05-25T06:01:42.621Z,98783.59
2023-05-25T06:05:45.253Z,98790.16
2023-05-25T06:09:47.623Z,98786.91
2023-05-25T06:13:50.034Z,98787.72
2023-05-25T06:17:52.596Z,98794.50
2023-05-25T06:21:56.042Z,98798.41
2023-05-25T06:26:02.915Z,98796.75
2023-05-25T06:30:06.283Z,98797.66
2023-05-25T06:34:08.570Z,98800.06
2023-05-25T06:38:12.188Z,98802.38
2023-05-25T06:42:14.338Z,98802.47
2023-05-25T06:46:26.736Z,98798.44
2023-05-25T06:50:28.942Z,98797.53
2023-05-25T06:54:30.991Z,98786.81
2023-05-25T06:58:33.124Z,98792.59
2023-05-25T07:02:35.227Z,98781.88
2023-05-25T07:06:37.339Z,98777.84
2023-05-25T07:10:39.371Z,98787.19
2023-05-25T07:14:41.523Z,98783.28
2023-05-25T07:18:43.722Z,98787.66
2023-05-25T07:22:47.181Z,98794.13
2023-05-25T07:26:49.890Z,98790.53
2023-05-25T07:30:51.993Z,98792.91
2023-05-25T07:34:54.086Z,98803.63
2023-05-25T07:38:56.276Z,98802.28
2023-05-25T07:42:58.466Z,98794.31
2023-05-25T07:47:00.579Z,98810.19
2023-05-25T07:51:02.833Z,98805.78
2023-05-25T07:55:06.995Z,98820.19
2023-05-25T07:59:10.084Z,98801.84
2023-05-25T08:03:12.369Z,98805.50
2023-05-25T08:07:14.581Z,98812.00
2023-05-25T08:11:17.114Z,98825.47
2023-05-25T08:15:19.201Z,98811.03
2023-05-25T08:19:21.381Z,98798.50
2023-05-25T08:23:23.860Z,98803.78
2023-05-25T08:27:26.009Z,98813.31
2023-05-25T08:31:28.170Z,98805.38
2023-05-25T08:35:30.344Z,98819.50
2023-05-25T08:40:23.040Z,98809.81
2023-05-25T08:44:26.979Z,98796.22
2023-05-25T08:48:40.223Z,98816.03
2023-05-25T08:52:46.990Z,98812.88
2023-05-25T08:56:52.252Z,98816.59
2023-05-25T09:00:58.480Z,98804.25
2023-05-25T09:05:02.063Z,98812.75
2023-05-25T09:09:29.126Z,98805.41
2023-05-25T09:13:31.401Z,98803.66
2023-05-25T09:17:35.308Z,98810.34
2023-05-25T09:22:41.981Z,98809.66
2023-05-25T09:26:48.765Z,98820.44
2023-05-25T09:30:50.972Z,98823.69
2023-05-25T09:34:55.244Z,98825.97
2023-05-25T09:38:57.481Z,98832.19
2023-05-25T09:42:59.774Z,98828.88
2023-05-25T09:47:02.521Z,98825.97
2023-05-25T09:51:07.014Z,98819.72
2023-05-25T09:55:10.406Z,98826.34
2023-05-25T09:59:12.532Z,98829.44
2023-05-25T10:03:15.888Z,98821.41
2023-05-25T10:07:18.693Z,98825.41
2023-05-25T10:11:22.715Z,98825.31
2023-05-25T10:15:26.159Z,98819.66
2023-05-25T10:19:33.315Z,98814.22
2023-05-25T10:23:44.582Z,98826.03
2023-05-25T10:27:59.813Z,98825.88
2023-05-25T10:32:03.736Z,98821.38
2023-05-25T10:36:10.863Z,98822.06
2023-05-25T10:40:15.252Z,98815.94
2023-05-25T10:44:18.712Z,98811.44
2023-05-25T10:48:20.847Z,98812.44
2023-05-25T10:52:27.061Z,98818.59
2023-05-25T10:56:29.147Z,98812.91
2023-05-25T11:00:31.960Z,98802.28
2023-05-25T11:04:37.397Z,98800.19
2023-05-25T11:09:06.457Z,98800.69
2023-05-25T11:13:37.871Z,98800.94
2023-05-25T11:17:46.716Z,98801.16
2023-05-25T11:21:49.348Z,98791.78
2023-05-25T11:25:51.383Z,98786.00
2023-05-25T11:29:54.952Z,98792.72
2023-05-25T11:33:58.316Z,98786.47
2023-05-25T11:38:01.286Z,98773.53
2023-05-25T11:42:06.677Z,98773.97
2023-05-25T11:46:12.608Z,98773.66
2023-05-25T11:50:17.642Z,98766.28
2023-05-25T11:54:30.275Z,98778.41
2023-05-25T11:58:35.797Z,98771.69
2023-05-25T12:02:39.139Z,98767.78
2023-05-25T12:06:41.348Z,98775.16
2023-05-25T12:10:51.384Z,98777.34
2023-05-25T12:14:53.474Z,98777.25
2023-05-25T12:18:56.280Z,98772.56
2023-05-25T12:22:58.391Z,98759.88
2023-05-25T12:27:02.318Z,98762.84
2023-05-25T12:31:24.053Z,98756.84
2023-05-25T12:35:26.351Z,98752.94
2023-05-25T12:39:34.837Z,98755.25
2023-05-25T12:43:38.845Z,98750.22
2023-05-25T12:47:45.825Z,98757.91
2023-05-25T12:51:47.861Z,98747.81
2023-05-25T12:55:49.948Z,98747.34
2023-05-25T12:59:56.210Z,98755.44
2023-05-25T13:03:58.299Z,98738.97
2023-05-25T13:08:01.752Z,98747.41
2023-05-25T13:12:04.556Z,98741.25
2023-05-25T13:16:07.510Z,98743.72
2023-05-25T13:20:14.347Z,98732.72
2023-05-25T13:24:16.661Z,98729.88
2023-05-25T13:28:18.713Z,98734.41
2023-05-25T13:32:20.858Z,98736.78
2023-05-25T13:36:22.934Z,98736.34
2023-05-25T13:40:24.958Z,98727.78
2023-05-25T13:44:27.114Z,98737.06
2023-05-25T13:48:30.006Z,98733.28
2023-05-25T13:52:32.136Z,98742.00
2023-05-25T13:56:34.229Z,98740.97
2023-05-25T14:00:36.400Z,98727.22
2023-05-25T14:04:38.846Z,98717.06
2023-05-25T14:08:40.917Z,98728.25
2023-05-25T14:12:43.120Z,98731.75
2023-05-25T14:16:45.207Z,98722.19
2023-05-25T14:20:47.522Z,98723.78
2023-05-25T14:24:49.665Z,98720.19
2023-05-25T14:28:51.881Z,98725.28
2023-05-25T14:32:54.035Z,98729.09
2023-05-25T14:36:56.167Z,98718.09
2023-05-25T14:40:58.931Z,98717.97
2023-05-25T14:45:01.054Z,98715.31
2023-05-25T14:49:03.125Z,98711.72
2023-05-25T14:53:05.625Z,98713.72
2023-05-25T14:57:07.692Z,98720.63
2023-05-25T15:01:09.828Z,98711.28
2023-05-25T15:05:11.835Z,98700.66
2023-05-25T15:09:15.745Z,98700.66
2023-05-25T15:13:18.635Z,98708.78
2023-05-25T15:17:20.683Z,98699.22
2023-05-25T15:21:23.095Z,98702.53
2023-05-25T15:29:33.548Z,98710.41
2023-05-25T15:33:50.202Z,98703.28
2023-05-25T15:37:56.198Z,98708.88
2023-05-25T15:41:58.377Z,98713.66
2023-05-25T15:46:00.527Z,98709.94
2023-05-25T15:50:02.657Z,98712.78
2023-05-25T15:54:04.887Z,98708.97
2023-05-25T15:58:07.073Z,98706.25
2023-05-25T16:02:09.253Z,98708.34
2023-05-25T16:06:11.544Z,98703.31
2023-05-25T16:10:13.622Z,98718.28
2023-05-25T16:14:15.774Z,98695.25
2023-05-25T16:18:17.901Z,98706.84
2023-05-25T16:22:19.989Z,98699.53
2023-05-25T16:26:22.430Z,98698.03
2023-05-25T16:30:24.556Z,98700.13
2023-05-25T16:34:26.805Z,98699.75
2023-05-25T16:38:28.985Z,98693.94
2023-05-25T16:42:31.077Z,98697.94
2023-05-25T16:46:33.381Z,98689.13
2023-05-25T16:50:35.436Z,98693.50
2023-05-25T16:54:37.493Z,98698.03
2023-05-25T16:58:39.545Z,98707.50
2023-05-25T17:02:41.735Z,98702.75
2023-05-25T17:06:43.813Z,98700.91
2023-05-25T17:10:49.258Z,98703.25
2023-05-25T17:14:51.349Z,98702.69
2023-05-25T17:18:53.442Z,98695.13
2023-05-25T17:22:55.964Z,98691.22
2023-05-25T17:26:58.064Z,98691.66
2023-05-25T17:31:00.240Z,98693.06
2023-05-25T17:35:02.461Z,98696.34
2023-05-25T17:39:05.662Z,98698.41
2023-05-25T17:43:07.908Z,98697.16
2023-05-25T17:47:11.169Z,98707.06
2023-05-25T17:51:13.993Z,98696.03
2023-05-25T17:55:16.094Z,98707.94
2023-05-25T17:59:18.265Z,98710.66
2023-05-25T18:03:20.401Z,98717.41
2023-05-25T18:07:22.710Z,98716.28
2023-05-25T18:11:26.040Z,98717.88
2023-05-25T18:15:28.114Z,98717.72
2023-05-25T18:19:30.237Z,98725.22
2023-05-25T18:23:32.292Z,98711.63
2023-05-25T18:27:34.390Z,98726.19
2023-05-25T18:31:36.581Z,98726.69
2023-05-25T18:35:39.162Z,98737.94
2023-05-25T18:39:41.498Z,98736.13
2023-05-25T18:43:43.532Z,98731.56
2023-05-25T18:47:45.934Z,98727.81
2023-05-25T18:51:47.998Z,98730.41
2023-05-25T18:55:50.070Z,98731.06
2023-05-25T18:59:52.149Z,98740.59
2023-05-25T19:03:56.717Z,98740.09
2023-05-25T19:08:00.654Z,98745.84
2023-05-25T19:12:04.638Z,98746.38
2023-05-25T19:22:06.625Z,98764.25
2023-05-25T19:26:08.744Z,98765.78
2023-05-25T19:30:11.198Z,98780.19
2023-05-25T19:34:39.871Z,98777.34
2023-05-25T19:38:42.495Z,98779.53
2023-05-25T19:42:44.948Z,98790.66
2023-05-25T19:46:47.123Z,98799.94
2023-05-25T19:50:49.189Z,98796.53
2023-05-25T19:54:51.350Z,98791.91
2023-05-25T19:58:53.523Z,98807.09
2023-05-25T20:02:55.899Z,98816.25
2023-05-25T20:06:58.086Z,98822.16
2023-05-25T20:11:00.166Z,98828.47
2023-05-25T20:15:02.276Z,98829.50
2023-05-25T20:19:07.348Z,98822.75
2023-05-25T20:23:09.771Z,98821.28
2023-05-25T20:27:13.173Z,98835.84
2023-05-25T20:31:15.267Z,98834.78
2023-05-25T20:35:17.425Z,98833.75
2023-05-25T20:39:19.616Z,98840.75
2023-05-25T20:43:21.746Z,98842.09
2023-05-25T20:47:23.922Z,98852.88
2023-05-25T20:51:26.015Z,98854.94
2023-05-25T20:55:28.611Z,98860.47
2023-05-25T20:59:31.629Z,98867.66
2023-05-25T21:03:34.146Z,98869.66
2023-05-25T21:07:36.400Z,98864.41
2023-05-25T21:11:38.465Z,98868.13
2023-05-25T21:15:40.797Z,98876.28
2023-05-25T21:19:42.894Z,98864.34
2023-05-25T21:23:44.971Z,98868.03
2023-05-25T21:27:47.097Z,98871.78
2023-05-25T21:31:49.490Z,98872.03
2023-05-25T21:35:51.979Z,98875.75
2023-05-25T21:39:54.071Z,98885.56
2023-05-25T21:43:56.165Z,98881.25
2023-05-25T21:47:58.266Z,98891.88
2023-05-25T21:52:00.388Z,98896.38
2023-05-25T21:56:02.558Z,98899.16
2023-05-25T22:00:06.463Z,98898.28
2023-05-25T22:04:14.530Z,98890.56
2023-05-25T22:08:16.584Z,98895.09
2023-05-25T22:12:20.178Z,98898.78
2023-05-25T22:16:22.351Z,98894.28
2023-05-25T22:20:24.586Z,98896.00
2023-05-25T22:24:26.657Z,98890.91
2023-05-25T22:28:28.738Z,98887.63
2023-05-25T22:32:30.881Z,98893.06
2023-05-25T22:36:32.980Z,98889.84
2023-05-25T22:40:35.290Z,98886.72
2023-05-25T22:44:37.689Z,98896.69
2023-05-25T22:48:40.606Z,98888.19
2023-05-25T22:52:43.035Z,98899.78
2023-05-25T22:56:45.653Z,98894.63
2023-05-25T23:00:47.697Z,98898.16
2023-05-25T23:04:49.792Z,98904.63
2023-05-25T23:08:51.827Z,98900.41
2023-05-25T23:12:54.681Z,98896.88
2023-05-25T23:16:56.802Z,98899.59
2023-05-25T23:20:58.852Z,98899.53
2023-05-25T23:25:01.082Z,98896.09
2023-05-25T23:29:03.180Z,98897.06
2023-05-25T23:33:08.180Z,98898.19
2023-05-25T23:37:10.660Z,98903.66
2023-05-25T23:41:12.853Z,98901.06
2023-05-25T23:45:14.920Z,98903.81
2023-05-25T23:49:17.007Z,98897.00
2023-05-25T23:53:19.095Z,98905.13
2023-05-25T23:57:21.117Z,98904.50
